createdAt,value
2022-08-28T00:05:02.481Z,21.73
2022-08-28T00:12:05.248Z,21.70
2022-08-28T00:19:06.846Z,21.66
2022-08-28T00:26:08.458Z,21.63
2022-08-28T00:33:20.997Z,21.57
2022-08-28T00:40:30.459Z,21.47
2022-08-28T00:47:34.984Z,21.46
2022-08-28T00:54:37.803Z,21.45
2022-08-28T01:01:39.512Z,21.46
2022-08-28T01:08:41.692Z,21.46
2022-08-28T01:15:43.396Z,21.42
2022-08-28T01:22:58.981Z,21.42
2022-08-28T01:30:03.619Z,21.40
2022-08-28T01:37:05.463Z,21.28
2022-08-28T01:44:07.251Z,21.30
2022-08-28T01:51:09.455Z,21.24
2022-08-28T01:58:11.182Z,21.23
2022-08-28T02:05:12.828Z,21.24
2022-08-28T02:12:14.600Z,21.15
2022-08-28T02:19:16.234Z,21.18
2022-08-28T02:26:17.990Z,21.18
2022-08-28T02:33:19.628Z,21.17
2022-08-28T02:40:22.370Z,21.13
2022-08-28T02:47:24.075Z,21.13
2022-08-28T02:54:26.390Z,21.08
2022-08-28T03:01:28.054Z,21.05
2022-08-28T03:08:30.066Z,21.07
2022-08-28T03:15:31.707Z,21.03
2022-08-28T03:22:56.578Z,20.97
2022-08-28T03:29:59.200Z,20.91
2022-08-28T03:37:01.197Z,20.82
2022-08-28T03:44:03.339Z,20.80
2022-08-28T03:51:09.283Z,20.79
2022-08-28T03:58:11.093Z,20.75
2022-08-28T04:05:20.623Z,20.71
2022-08-28T04:12:22.257Z,20.67
2022-08-28T04:19:23.992Z,20.62
2022-08-28T04:26:26.426Z,20.63
2022-08-28T04:33:28.294Z,20.60
2022-08-28T04:40:30.095Z,20.58
2022-08-28T04:47:35.351Z,20.58
2022-08-28T04:54:36.991Z,20.56
2022-08-28T05:01:40.197Z,20.54
2022-08-28T05:08:42.158Z,20.49
2022-08-28T05:15:45.855Z,20.46
2022-08-28T05:22:47.712Z,20.45
2022-08-28T05:29:50.292Z,20.36
2022-08-28T05:36:51.893Z,20.32
2022-08-28T05:43:54.001Z,20.23
2022-08-28T05:50:57.754Z,20.22
2022-08-28T05:58:19.336Z,20.23
2022-08-28T06:05:21.040Z,20.17
2022-08-28T06:12:22.675Z,19.99
2022-08-28T06:19:25.126Z,19.95
2022-08-28T06:26:27.179Z,19.87
2022-08-28T06:33:28.831Z,19.85
2022-08-28T06:40:30.468Z,19.94
2022-08-28T06:47:32.131Z,20.09
2022-08-28T06:54:33.785Z,20.03
2022-08-28T07:01:36.476Z,20.07
2022-08-28T07:08:38.807Z,20.12
2022-08-28T07:15:41.924Z,20.21
2022-08-28T07:22:43.770Z,20.37
2022-08-28T07:29:45.392Z,20.44
2022-08-28T07:36:47.122Z,20.52
2022-08-28T07:44:07.411Z,20.57
2022-08-28T07:51:09.298Z,20.63
2022-08-28T07:58:11.238Z,20.58
2022-08-28T08:05:14.329Z,20.67
2022-08-28T08:12:16.272Z,20.85
2022-08-28T08:19:19.511Z,20.84
2022-08-28T08:26:22.874Z,20.94
2022-08-28T08:33:24.466Z,21.09
2022-08-28T08:40:26.212Z,21.15
2022-08-28T08:47:48.848Z,21.09
2022-08-28T08:55:06.037Z,21.07
2022-08-28T09:02:15.485Z,20.97
2022-08-28T09:09:30.870Z,21.01
2022-08-28T09:16:35.853Z,21.00
2022-08-28T09:23:37.467Z,20.89
2022-08-28T09:30:39.169Z,20.93
2022-08-28T09:37:41.590Z,20.86
2022-08-28T09:44:54.567Z,20.81
2022-08-28T09:51:59.420Z,20.94
2022-08-28T09:59:06.502Z,20.93
2022-08-28T10:06:25.126Z,20.99
2022-08-28T10:13:30.665Z,21.14
2022-08-28T10:21:13.723Z,21.08
2022-08-28T10:28:43.277Z,21.01
2022-08-28T10:36:02.611Z,20.92
2022-08-28T10:43:25.475Z,20.77
2022-08-28T10:50:29.419Z,20.78
2022-08-28T10:57:49.380Z,20.71
2022-08-28T11:04:53.332Z,20.64
2022-08-28T11:12:02.535Z,20.64
2022-08-28T11:19:25.637Z,20.58
2022-08-28T11:26:54.648Z,20.70
2022-08-28T11:33:58.908Z,20.64
2022-08-28T11:41:17.556Z,20.54
2022-08-28T11:48:25.646Z,20.56
2022-08-28T11:55:30.923Z,20.61
2022-08-28T12:02:39.097Z,20.73
2022-08-28T12:09:45.362Z,20.62
2022-08-28T12:16:58.764Z,20.69
2022-08-28T12:24:07.159Z,20.72
2022-08-28T12:31:42.814Z,20.71
2022-08-28T12:38:51.100Z,20.85
2022-08-28T12:45:55.484Z,20.94
2022-08-28T12:52:59.879Z,21.05
2022-08-28T13:00:08.151Z,21.10
2022-08-28T13:07:15.664Z,21.22
2022-08-28T13:14:41.896Z,21.24
2022-08-28T13:21:46.396Z,21.05
2022-08-28T13:28:48.015Z,21.04
2022-08-28T13:35:54.774Z,20.91
2022-08-28T13:43:03.126Z,21.32
2022-08-28T13:50:06.166Z,22.08
2022-08-28T13:57:07.850Z,23.38
2022-08-28T14:04:09.791Z,23.74
2022-08-28T14:11:12.771Z,24.37
2022-08-28T14:18:14.761Z,25.42
2022-08-28T14:25:16.478Z,25.93
2022-08-28T14:32:18.397Z,26.55
2022-08-28T14:39:20.084Z,27.03
2022-08-28T14:46:28.444Z,27.43
2022-08-28T14:53:30.220Z,27.14
2022-08-28T15:00:31.847Z,27.23
2022-08-28T15:07:33.530Z,26.96
2022-08-28T15:14:35.825Z,27.08
2022-08-28T15:21:38.330Z,27.32
2022-08-28T15:28:39.993Z,27.34
2022-08-28T15:35:41.598Z,27.64
2022-08-28T15:42:43.941Z,27.49
2022-08-28T15:49:48.746Z,27.38
2022-08-28T15:56:53.768Z,27.32
2022-08-28T16:03:55.923Z,26.92
2022-08-28T16:10:57.604Z,26.83
2022-08-28T16:17:59.238Z,26.94
2022-08-28T16:25:00.876Z,26.78
2022-08-28T16:32:02.834Z,26.69
2022-08-28T16:39:04.701Z,26.43
2022-08-28T16:46:14.217Z,26.03
2022-08-28T16:53:15.923Z,25.76
2022-08-28T17:00:27.069Z,25.57
2022-08-28T17:07:29.080Z,25.39
2022-08-28T17:14:30.706Z,25.23
2022-08-28T17:21:50.774Z,24.99
2022-08-28T17:28:52.466Z,24.74
2022-08-28T17:35:59.656Z,24.45
2022-08-28T17:43:02.786Z,24.25
2022-08-28T17:50:05.800Z,24.06
2022-08-28T17:57:07.761Z,23.86
2022-08-28T18:04:09.552Z,23.71
2022-08-28T18:11:13.413Z,23.58
2022-08-28T18:18:15.307Z,23.44
2022-08-28T18:25:35.280Z,23.27
2022-08-28T18:32:37.039Z,23.12
2022-08-28T18:39:39.200Z,23.01
2022-08-28T18:46:41.459Z,22.90
2022-08-28T18:53:43.606Z,22.77
2022-08-28T19:00:45.261Z,22.65
2022-08-28T19:07:47.341Z,22.57
2022-08-28T19:14:53.157Z,22.46
2022-08-28T19:21:54.771Z,22.40
2022-08-28T19:28:56.860Z,22.28
2022-08-28T19:35:58.449Z,22.13
2022-08-28T19:43:00.681Z,22.05
2022-08-28T19:50:02.597Z,21.94
2022-08-28T19:57:05.213Z,21.78
2022-08-28T20:04:07.747Z,21.69
2022-08-28T20:11:09.716Z,21.57
2022-08-28T20:18:12.354Z,21.43
2022-08-28T20:25:14.816Z,21.36
2022-08-28T20:32:16.997Z,21.22
2022-08-28T20:39:18.996Z,21.13
2022-08-28T20:46:20.694Z,21.03
2022-08-28T20:53:36.988Z,20.96
2022-08-28T21:00:40.036Z,20.85
2022-08-28T21:07:41.721Z,20.75
2022-08-28T21:14:44.161Z,20.63
2022-08-28T21:21:53.043Z,20.46
2022-08-28T21:28:54.884Z,20.34
2022-08-28T21:35:56.460Z,20.27
2022-08-28T21:42:58.119Z,20.22
2022-08-28T21:49:59.809Z,20.18
2022-08-28T21:57:01.426Z,20.09
2022-08-28T22:04:03.325Z,20.06
2022-08-28T22:11:04.962Z,19.98
2022-08-28T22:18:09.896Z,19.90
2022-08-28T22:25:11.506Z,19.78
2022-08-28T22:32:13.150Z,19.70
2022-08-28T22:39:14.783Z,19.64
2022-08-28T22:46:16.656Z,19.62
2022-08-28T22:53:18.392Z,19.56
2022-08-28T23:00:21.561Z,19.49
2022-08-28T23:07:23.187Z,19.41
2022-08-28T23:14:24.879Z,19.35
2022-08-28T23:21:29.022Z,19.23
2022-08-28T23:28:30.629Z,19.19
2022-08-28T23:35:32.209Z,19.09
2022-08-28T23:42:34.767Z,19.08
2022-08-28T23:49:42.626Z,19.08
2022-08-28T23:56:44.623Z,19.00
